Time;durP1;ratioP1;P1;durP2;ratioP2;P2;SDS_P1;SDS_P2;PMS_P1;PMS_P2;Temp;Humidity;BMP_temperature;BMP_pressure;BME280_temperature;BME280_humidity;BME280_pressure;Samples;Min_cycle;Max_cycle;Signal;HPM_P1;HPM_P2
2022/12/13 00:02:04;;;;;;;;;;;;;;;;;;5056351;28;19913;-81
2022/12/13 00:04:51;;;;;;;;;;;;;;;;;;5038200;28;19914;-81
2022/12/13 00:07:37;;;;;;;;;;;;;;;;;;5036461;28;19923;-80
2022/12/13 00:10:24;;;;;;;;;;;;;;;;;;5025717;28;19917;-80
2022/12/13 00:13:10;;;;;;;;;;;;;;;;;;5034635;28;19936;-79
2022/12/13 00:15:57;;;;;;;;;;;;;;;;;;5036293;28;19920;-81
2022/12/13 00:18:43;;;;;;;;;;;;;;;;;;5034024;28;19917;-81
2022/12/13 00:21:30;;;;;;;;;;;;;;;;;;5038287;28;20284;-82
2022/12/13 00:24:16;;;;;;;;;;;;;;;;;;5041213;28;19917;-81
2022/12/13 00:27:03;;;;;;;;;;;;;;;;;;5041151;28;19948;-80
2022/12/13 00:29:50;;;;;;;;;;;;;;;;;;5052819;28;20284;-80
2022/12/13 00:32:37;;;;;;;;;;;;;;;;;;5037532;28;19931;-83
2022/12/13 00:35:23;;;;;;;;;;;;;;;;;;5045295;28;19917;-82
2022/12/13 00:38:10;;;;;;;;;;;;;;;;;;5058448;28;19921;-82
2022/12/13 00:40:56;;;;;;;;;;;;;;;;;;5041098;28;19917;-83
2022/12/13 00:43:43;;;;;;;;;;;;;;;;;;5053953;28;19920;-82
2022/12/13 00:46:29;;;;;;;;;;;;;;;;;;5067577;28;19919;-84
2022/12/13 00:49:16;;;;;;;;;;;;;;;;;;5055643;28;19909;-82
2022/12/13 00:52:02;;;;;;;;;;;;;;;;;;5058077;28;19917;-82
2022/12/13 00:54:49;;;;;;;;;;;;;;;;;;5042569;28;19913;-81
2022/12/13 00:57:35;;;;;;;;;;;;;;;;;;5059185;28;19935;-80
2022/12/13 01:00:22;;;;;;;;;;;;;;;;;;5061998;28;19909;-81
2022/12/13 01:03:19;;;;;;;;;;;;;;;;;;5045248;28;20495;-80
2022/12/13 01:06:06;;;;;;;;;;;;;;;;;;5040880;28;19909;-81
2022/12/13 01:08:53;;;;;;;;;;;;;;;;;;5027107;28;19913;-81
2022/12/13 01:11:39;;;;;;;;;;;;;;;;;;5037741;28;20273;-81
2022/12/13 01:14:26;;;;;;;;;;;;;;;;;;5036868;28;19920;-80
2022/12/13 01:17:12;;;;;;;;;;;;;;;;;;5029795;28;19936;-80
2022/12/13 01:19:59;;;;;;;;;;;;;;;;;;5035132;28;20289;-81
2022/12/13 01:22:45;;;;;;;;;;;;;;;;;;5033304;28;19913;-81
2022/12/13 01:25:32;;;;;;;;;;;;;;;;;;5046393;28;19917;-81
2022/12/13 01:28:18;;;;;;;;;;;;;;;;;;5035930;28;20381;-81
2022/12/13 01:31:05;;;;;;;;;;;;;;;;;;5034206;28;20289;-81
2022/12/13 01:33:51;;;;;;;;;;;;;;;;;;5021443;28;19916;-83
2022/12/13 01:36:38;;;;;;;;;;;;;;;;;;5046710;28;19921;-83
2022/12/13 01:39:24;;;;;;;;;;;;;;;;;;5042704;28;19924;-83
2022/12/13 01:42:11;;;;;;;;;;;;;;;;;;5040495;28;19916;-82
2022/12/13 01:44:57;;;;;;;;;;;;;;;;;;5039675;28;20300;-83
2022/12/13 01:47:44;;;;;;;;;;;;;;;;;;5037410;28;19912;-83
2022/12/13 01:50:30;;;;;;;;;;;;;;;;;;5034015;28;19928;-81
2022/12/13 01:53:17;;;;;;;;;;;;;;;;;;5032919;28;20443;-81
2022/12/13 01:56:03;;;;;;;;;;;;;;;;;;5028573;28;19932;-81
2022/12/13 01:58:53;;;;;;;;;;;;;;;;;;5042477;28;19909;-82
2022/12/13 02:01:39;;;;;;;;;;;;;;;;;;5033679;28;20299;-81
2022/12/13 02:04:26;;;;;;;;;;;;;;;;;;5031603;28;20284;-80
2022/12/13 02:07:12;;;;;;;;;;;;;;;;;;5044091;28;20615;-80
2022/12/13 02:09:59;;;;;;;;;;;;;;;;;;5030840;28;19920;-80
2022/12/13 02:12:45;;;;;;;;;;;;;;;;;;5035765;28;19921;-81
2022/12/13 02:15:32;;;;;;;;;;;;;;;;;;5031664;28;20407;-81
2022/12/13 02:18:18;;;;;;;;;;;;;;;;;;5046542;28;19913;-85
2022/12/13 02:21:05;;;;;;;;;;;;;;;;;;5037632;28;19920;-84
2022/12/13 02:23:51;;;;;;;;;;;;;;;;;;5038923;28;19919;-84
2022/12/13 02:26:38;;;;;;;;;;;;;;;;;;5031246;28;19927;-83
2022/12/13 02:29:24;;;;;;;;;;;;;;;;;;5031750;28;19944;-83
2022/12/13 02:32:11;;;;;;;;;;;;;;;;;;5033177;28;20451;-83
2022/12/13 02:34:58;;;;;;;;;;;;;;;;;;5025853;28;19927;-83
2022/12/13 02:37:44;;;;;;;;;;;;;;;;;;5043824;28;19921;-83
2022/12/13 02:40:37;;;;;;;;;;;;;;;;;;5042003;28;19913;-84
2022/12/13 02:43:24;;;;;;;;;;;;;;;;;;5043825;28;19939;-83
2022/12/13 02:46:11;;;;;;;;;;;;;;;;;;5048322;28;19947;-82
2022/12/13 02:48:58;;;;;;;;;;;;;;;;;;5045758;28;19917;-83
2022/12/13 02:51:44;;;;;;;;;;;;;;;;;;5035299;28;19917;-83
2022/12/13 02:54:31;;;;;;;;;;;;;;;;;;5021894;28;20328;-83
2022/12/13 02:57:17;;;;;;;;;;;;;;;;;;5037143;28;19956;-84
2022/12/13 03:00:04;;;;;;;;;;;;;;;;;;5044812;28;19923;-82
2022/12/13 03:02:50;;;;;;;;;;;;;;;;;;5039800;28;20383;-82
2022/12/13 03:08:42;;;;;;;;;;;;;;;;;;5042628;28;19924;-83
2022/12/13 03:14:34;;;;;;;;;;;;;;;;;;5045371;28;19917;-84
2022/12/13 03:17:20;;;;;;;;;;;;;;;;;;5033867;28;19913;-84
2022/12/13 03:20:07;;;;;;;;;;;;;;;;;;5028591;28;19913;-82
2022/12/13 03:22:53;;;;;;;;;;;;;;;;;;5039197;28;19924;-83
2022/12/13 03:25:40;;;;;;;;;;;;;;;;;;5030132;28;19913;-83
2022/12/13 03:28:26;;;;;;;;;;;;;;;;;;5030430;28;20258;-83
2022/12/13 03:31:13;;;;;;;;;;;;;;;;;;5044550;28;19921;-83
2022/12/13 03:33:59;;;;;;;;;;;;;;;;;;5033608;28;19920;-83
2022/12/13 03:36:46;;;;;;;;;;;;;;;;;;5044183;28;19921;-83
2022/12/13 03:39:32;;;;;;;;;;;;;;;;;;5046076;28;19925;-82
2022/12/13 03:42:19;;;;;;;;;;;;;;;;;;5054256;28;19913;-82
2022/12/13 03:45:05;;;;;;;;;;;;;;;;;;5048956;28;20419;-84
2022/12/13 03:47:52;;;;;;;;;;;;;;;;;;5044471;28;20391;-83
2022/12/13 03:50:38;;;;;;;;;;;;;;;;;;5033045;28;19917;-81
2022/12/13 03:53:25;;;;;;;;;;;;;;;;;;5045270;28;20407;-83
2022/12/13 03:56:11;;;;;;;;;;;;;;;;;;5024453;28;19909;-82
2022/12/13 03:58:58;;;;;;;;;;;;;;;;;;5027299;28;19924;-82
2022/12/13 04:01:44;;;;;;;;;;;;;;;;;;5042479;28;19936;-82
2022/12/13 04:04:31;;;;;;;;;;;;;;;;;;5040071;28;19924;-81
2022/12/13 04:07:17;;;;;;;;;;;;;;;;;;5041352;28;19913;-81
2022/12/13 04:10:03;;;;;;;;;;;;;;;;;;5037531;28;20396;-81
2022/12/13 04:15:55;;;;;;;;;;;;;;;;;;5039555;28;19917;-85
2022/12/13 04:18:42;;;;;;;;;;;;;;;;;;5046360;28;20291;-82
2022/12/13 04:21:28;;;;;;;;;;;;;;;;;;5027528;28;19917;-82
2022/12/13 04:24:15;;;;;;;;;;;;;;;;;;5030851;28;19921;-83
2022/12/13 04:27:01;;;;;;;;;;;;;;;;;;5028822;28;19928;-84
2022/12/13 04:29:48;;;;;;;;;;;;;;;;;;5047311;28;19916;-81
2022/12/13 04:32:34;;;;;;;;;;;;;;;;;;5043948;28;20311;-80
2022/12/13 04:35:21;;;;;;;;;;;;;;;;;;5033753;28;19920;-78
2022/12/13 04:38:07;;;;;;;;;;;;;;;;;;5045396;28;19925;-78
2022/12/13 04:40:54;;;;;;;;;;;;;;;;;;5031029;28;19920;-78
2022/12/13 04:43:43;;;;;;;;;;;;;;;;;;5043189;28;19923;-79
2022/12/13 04:46:32;;;;;;;;;;;;;;;;;;5027032;28;19919;-78
2022/12/13 04:49:19;;;;;;;;;;;;;;;;;;5046422;28;19913;-78
2022/12/13 04:52:05;;;;;;;;;;;;;;;;;;5045547;28;19921;-79
2022/12/13 04:54:52;;;;;;;;;;;;;;;;;;5038896;28;19935;-79
2022/12/13 04:57:38;;;;;;;;;;;;;;;;;;5032687;28;19921;-78
2022/12/13 05:00:26;;;;;;;;;;;;;;;;;;5045162;28;19927;-79
2022/12/13 05:03:13;;;;;;;;;;;;;;;;;;5044004;28;19955;-80
2022/12/13 05:05:59;;;;;;;;;;;;;;;;;;5039557;28;20288;-80
2022/12/13 05:08:46;;;;;;;;;;;;;;;;;;5034428;28;19913;-82
2022/12/13 05:11:32;;;;;;;;;;;;;;;;;;5039272;28;19917;-79
2022/12/13 05:14:19;;;;;;;;;;;;;;;;;;5030360;28;20376;-78
2022/12/13 05:17:05;;;;;;;;;;;;;;;;;;5037300;28;19913;-82
2022/12/13 05:19:52;;;;;;;;;;;;;;;;;;5046232;28;19913;-80
2022/12/13 05:22:38;;;;;;;;;;;;;;;;;;5035910;28;20456;-79
2022/12/13 05:25:25;;;;;;;;;;;;;;;;;;5038745;28;19912;-78
2022/12/13 05:28:11;;;;;;;;;;;;;;;;;;5044497;28;19916;-79
2022/12/13 05:30:58;;;;;;;;;;;;;;;;;;5042848;28;20396;-80
2022/12/13 05:33:44;;;;;;;;;;;;;;;;;;5044339;28;19927;-78
2022/12/13 05:36:31;;;;;;;;;;;;;;;;;;5038963;28;19909;-79
2022/12/13 05:39:17;;;;;;;;;;;;;;;;;;5033040;28;19921;-78
2022/12/13 05:42:04;;;;;;;;;;;;;;;;;;5035585;28;19913;-80
2022/12/13 05:44:50;;;;;;;;;;;;;;;;;;5036609;28;19913;-79
2022/12/13 05:47:40;;;;;;;;;;;;;;;;;;5020191;28;19909;-79
2022/12/13 05:50:26;;;;;;;;;;;;;;;;;;5046481;28;19908;-79
2022/12/13 05:53:16;;;;;;;;;;;;;;;;;;5033782;28;19995;-79
2022/12/13 05:56:03;;;;;;;;;;;;;;;;;;5033043;28;20365;-78
2022/12/13 05:58:49;;;;;;;;;;;;;;;;;;5032680;28;20287;-79
2022/12/13 06:01:36;;;;;;;;;;;;;;;;;;5036563;28;19970;-78
2022/12/13 06:04:22;;;;;;;;;;;;;;;;;;5044746;28;19913;-80
2022/12/13 06:07:09;;;;;;;;;;;;;;;;;;5034581;28;19928;-79
2022/12/13 06:09:55;;;;;;;;;;;;;;;;;;5022368;28;20388;-80
2022/12/13 06:12:42;;;;;;;;;;;;;;;;;;5033752;28;19921;-81
2022/12/13 06:15:28;;;;;;;;;;;;;;;;;;5043146;28;19917;-80
2022/12/13 06:18:15;;;;;;;;;;;;;;;;;;5041980;28;19928;-81
2022/12/13 06:21:01;;;;;;;;;;;;;;;;;;5030829;28;19918;-78
2022/12/13 06:23:48;;;;;;;;;;;;;;;;;;5036995;28;19935;-79
2022/12/13 06:26:34;;;;;;;;;;;;;;;;;;5045599;28;20408;-79
2022/12/13 06:29:21;;;;;;;;;;;;;;;;;;5046254;28;19915;-80
2022/12/13 06:32:07;;;;;;;;;;;;;;;;;;5029350;28;19927;-79
2022/12/13 06:34:56;;;;;;;;;;;;;;;;;;5038849;28;21577;-78
2022/12/13 06:37:42;;;;;;;;;;;;;;;;;;5041828;28;19954;-79
2022/12/13 06:40:29;;;;;;;;;;;;;;;;;;5057718;28;19927;-78
2022/12/13 06:43:15;;;;;;;;;;;;;;;;;;5042464;28;19913;-79
2022/12/13 06:46:02;;;;;;;;;;;;;;;;;;5041829;28;19928;-78
2022/12/13 06:48:48;;;;;;;;;;;;;;;;;;5036319;28;19921;-78
2022/12/13 06:51:35;;;;;;;;;;;;;;;;;;5037753;28;19909;-82
2022/12/13 06:54:21;;;;;;;;;;;;;;;;;;5037553;28;19916;-78
2022/12/13 06:57:08;;;;;;;;;;;;;;;;;;5045139;28;19917;-78
2022/12/13 06:59:54;;;;;;;;;;;;;;;;;;5041135;28;19924;-80
2022/12/13 07:02:41;;;;;;;;;;;;;;;;;;5039034;28;20377;-79
2022/12/13 07:05:27;;;;;;;;;;;;;;;;;;5044179;28;19924;-79
2022/12/13 07:08:14;;;;;;;;;;;;;;;;;;5042726;28;20365;-79
2022/12/13 07:11:00;;;;;;;;;;;;;;;;;;5042696;28;20506;-79
2022/12/13 07:13:47;;;;;;;;;;;;;;;;;;5040059;28;19916;-83
2022/12/13 07:16:33;;;;;;;;;;;;;;;;;;5043162;28;19924;-78
2022/12/13 07:19:20;;;;;;;;;;;;;;;;;;5037374;28;19913;-77
2022/12/13 07:22:06;;;;;;;;;;;;;;;;;;5045247;28;19940;-76
2022/12/13 07:24:53;;;;;;;;;;;;;;;;;;5028213;28;20416;-77
2022/12/13 07:27:39;;;;;;;;;;;;;;;;;;5042555;28;19936;-76
2022/12/13 07:30:26;;;;;;;;;;;;;;;;;;5031063;28;20388;-80
2022/12/13 07:33:12;;;;;;;;;;;;;;;;;;5047529;28;19992;-80
2022/12/13 07:35:59;;;;;;;;;;;;;;;;;;5053286;28;19918;-79
2022/12/13 07:38:46;;;;;;;;;;;;;;;;;;5047710;28;19921;-79
2022/12/13 07:41:32;;;;;;;;;;;;;;;;;;5038148;28;19912;-80
2022/12/13 07:44:19;;;;;;;;;;;;;;;;;;5050296;28;19917;-79
2022/12/13 07:47:05;;;;;;;;;;;;;;;;;;5038935;28;20288;-79
2022/12/13 07:49:52;;;;;;;;;;;;;;;;;;5051301;28;19912;-79
2022/12/13 07:52:38;;;;;;;;;;;;;;;;;;5050885;28;19916;-79
2022/12/13 07:55:25;;;;;;;;;;;;;;;;;;5054544;28;19913;-80
2022/12/13 07:58:11;;;;;;;;;;;;;;;;;;5053017;28;19920;-79
2022/12/13 08:00:58;;;;;;;;;;;;;;;;;;5037681;28;19913;-79
2022/12/13 08:03:45;;;;;;;;;;;;;;;;;;5040799;28;19920;-80
2022/12/13 08:06:31;;;;;;;;;;;;;;;;;;5039936;28;19913;-77
2022/12/13 08:09:18;;;;;;;;;;;;;;;;;;5047484;28;19908;-80
2022/12/13 08:12:05;;;;;;;;;;;;;;;;;;5056269;28;20312;-78
2022/12/13 08:14:51;;;;;;;;;;;;;;;;;;5042993;28;19917;-79
2022/12/13 08:17:38;;;;;;;;;;;;;;;;;;5037354;28;19917;-79
2022/12/13 08:20:24;;;;;;;;;;;;;;;;;;5039203;28;20373;-80
2022/12/13 08:23:10;;;;;;;;;;;;;;;;;;5039706;28;19917;-79
2022/12/13 08:25:57;;;;;;;;;;;;;;;;;;5035413;28;19919;-79
2022/12/13 08:28:43;;;;;;;;;;;;;;;;;;5034388;28;19987;-80
2022/12/13 08:31:30;;;;;;;;;;;;;;;;;;5041782;28;19909;-78
2022/12/13 08:34:16;;;;;;;;;;;;;;;;;;5038971;28;19913;-80
2022/12/13 08:37:03;;;;;;;;;;;;;;;;;;5037764;28;19944;-79
2022/12/13 08:39:49;;;;;;;;;;;;;;;;;;5042913;28;20392;-78
2022/12/13 08:42:36;;;;;;;;;;;;;;;;;;5029385;28;19920;-79
2022/12/13 08:45:23;;;;;;;;;;;;;;;;;;5042838;28;19921;-78
2022/12/13 08:48:09;;;;;;;;;;;;;;;;;;5039062;28;20300;-79
2022/12/13 08:50:56;;;;;;;;;;;;;;;;;;5045752;28;20383;-78
2022/12/13 08:53:42;;;;;;;;;;;;;;;;;;5032629;28;19997;-79
2022/12/13 08:56:29;;;;;;;;;;;;;;;;;;5047393;28;20361;-78
2022/12/13 08:59:15;;;;;;;;;;;;;;;;;;5032229;28;19917;-79
2022/12/13 09:02:02;;;;;;;;;;;;;;;;;;5032063;28;19921;-79
2022/12/13 09:04:48;;;;;;;;;;;;;;;;;;5043883;28;20284;-79
2022/12/13 09:07:35;;;;;;;;;;;;;;;;;;5031131;28;19917;-79
2022/12/13 09:10:21;;;;;;;;;;;;;;;;;;5040128;28;19909;-79
2022/12/13 09:13:07;;;;;;;;;;;;;;;;;;5028917;28;20615;-77
2022/12/13 09:15:54;;;;;;;;;;;;;;;;;;5044768;28;19916;-80
2022/12/13 09:18:40;;;;;;;;;;;;;;;;;;5037103;28;19917;-79
2022/12/13 09:21:27;;;;;;;;;;;;;;;;;;5033250;28;19917;-79
2022/12/13 09:24:14;;;;;;;;;;;;;;;;;;5029414;28;19917;-78
2022/12/13 09:27:01;;;;;;;;;;;;;;;;;;5038367;28;19915;-79
2022/12/13 09:29:47;;;;;;;;;;;;;;;;;;5042825;28;19944;-79
2022/12/13 09:32:34;;;;;;;;;;;;;;;;;;5032475;28;20296;-79
2022/12/13 09:35:20;;;;;;;;;;;;;;;;;;5038888;28;20353;-79
2022/12/13 09:38:07;;;;;;;;;;;;;;;;;;5030185;28;19925;-80
2022/12/13 09:40:53;;;;;;;;;;;;;;;;;;5030808;28;19921;-79
2022/12/13 09:43:40;;;;;;;;;;;;;;;;;;5042310;28;19917;-79
2022/12/13 09:46:26;;;;;;;;;;;;;;;;;;5031419;28;19920;-79
2022/12/13 09:49:13;;;;;;;;;;;;;;;;;;5044963;28;20265;-78
2022/12/13 09:52:00;;;;;;;;;;;;;;;;;;5034777;28;19925;-79
2022/12/13 09:54:47;;;;;;;;;;;;;;;;;;5046254;28;19917;-79
2022/12/13 09:57:33;;;;;;;;;;;;;;;;;;5041504;28;19915;-79
2022/12/13 10:00:20;;;;;;;;;;;;;;;;;;5033994;28;20335;-79
2022/12/13 10:03:06;;;;;;;;;;;;;;;;;;5038809;28;19970;-78
2022/12/13 10:05:53;;;;;;;;;;;;;;;;;;5030833;28;20307;-78
2022/12/13 10:08:39;;;;;;;;;;;;;;;;;;5045222;28;19920;-79
2022/12/13 10:11:26;;;;;;;;;;;;;;;;;;5046131;28;19932;-80
2022/12/13 10:14:12;;;;;;;;;;;;;;;;;;5045255;28;19920;-79
2022/12/13 10:16:59;;;;;;;;;;;;;;;;;;5055422;28;20540;-78
2022/12/13 10:19:45;;;;;;;;;;;;;;;;;;5035017;28;20594;-79
2022/12/13 10:22:32;;;;;;;;;;;;;;;;;;5029389;28;19919;-79
2022/12/13 10:25:18;;;;;;;;;;;;;;;;;;5029407;28;19919;-79
2022/12/13 10:28:05;;;;;;;;;;;;;;;;;;5041267;28;19909;-80
2022/12/13 10:30:52;;;;;;;;;;;;;;;;;;5029548;28;19924;-78
2022/12/13 10:33:38;;;;;;;;;;;;;;;;;;5038148;28;19920;-79
2022/12/13 10:36:25;;;;;;;;;;;;;;;;;;5044434;28;20308;-79
2022/12/13 10:39:11;;;;;;;;;;;;;;;;;;5042209;28;20391;-80
2022/12/13 10:41:58;;;;;;;;;;;;;;;;;;5039702;28;19913;-80
2022/12/13 10:44:45;;;;;;;;;;;;;;;;;;5044670;28;20635;-78
2022/12/13 10:47:31;;;;;;;;;;;;;;;;;;5033688;28;19913;-80
2022/12/13 10:50:18;;;;;;;;;;;;;;;;;;5036275;28;19913;-79
2022/12/13 10:53:04;;;;;;;;;;;;;;;;;;5041238;28;19932;-79
2022/12/13 10:55:51;;;;;;;;;;;;;;;;;;5039888;28;20358;-79
2022/12/13 10:58:37;;;;;;;;;;;;;;;;;;5024762;28;19958;-80
2022/12/13 11:01:24;;;;;;;;;;;;;;;;;;5039008;28;19927;-80
2022/12/13 11:04:10;;;;;;;;;;;;;;;;;;5023846;28;19921;-80
2022/12/13 11:06:57;;;;;;;;;;;;;;;;;;5026209;28;20290;-78
2022/12/13 11:09:43;;;;;;;;;;;;;;;;;;5036273;28;20636;-79
2022/12/13 11:12:30;;;;;;;;;;;;;;;;;;5038583;28;19948;-79
2022/12/13 11:15:18;;;;;;;;;;;;;;;;;;5041832;28;19940;-79
2022/12/13 11:18:04;;;;;;;;;;;;;;;;;;5043045;28;19917;-80
2022/12/13 11:20:51;;;;;;;;;;;;;;;;;;5042277;28;20344;-82
2022/12/13 11:23:37;;;;;;;;;;;;;;;;;;5030416;28;20376;-79
2022/12/13 11:26:24;;;;;;;;;;;;;;;;;;5033679;28;20256;-79
2022/12/13 11:29:11;;;;;;;;;;;;;;;;;;5045028;28;19917;-80
2022/12/13 11:31:57;;;;;;;;;;;;;;;;;;5037396;28;19920;-80
2022/12/13 11:34:44;;;;;;;;;;;;;;;;;;5032924;28;19936;-80
2022/12/13 11:37:30;;;;;;;;;;;;;;;;;;5029475;28;19917;-79
2022/12/13 11:40:17;;;;;;;;;;;;;;;;;;5037641;28;19921;-79
2022/12/13 11:43:03;;;;;;;;;;;;;;;;;;5048735;28;19917;-79
2022/12/13 11:45:52;;;;;;;;;;;;;;;;;;5039447;28;19948;-80
2022/12/13 11:48:39;;;;;;;;;;;;;;;;;;5034372;28;19913;-79
2022/12/13 11:51:26;;;;;;;;;;;;;;;;;;5041727;28;19924;-82
2022/12/13 11:54:12;;;;;;;;;;;;;;;;;;5040130;28;19924;-81
2022/12/13 11:57:03;;;;;;;;;;;;;;;;;;5032854;28;19924;-80
2022/12/13 11:59:50;;;;;;;;;;;;;;;;;;5033419;28;19913;-80
2022/12/13 12:02:36;;;;;;;;;;;;;;;;;;5030569;28;19919;-79
2022/12/13 12:05:23;;;;;;;;;;;;;;;;;;5038212;28;20368;-79
2022/12/13 12:08:10;;;;;;;;;;;;;;;;;;5047941;28;19914;-80
2022/12/13 12:10:56;;;;;;;;;;;;;;;;;;5043268;28;19916;-79
2022/12/13 12:13:43;;;;;;;;;;;;;;;;;;5041661;28;19918;-79
2022/12/13 12:16:30;;;;;;;;;;;;;;;;;;5045682;28;20342;-79
2022/12/13 12:19:16;;;;;;;;;;;;;;;;;;5040594;28;20391;-80
2022/12/13 12:22:02;;;;;;;;;;;;;;;;;;5046536;28;19923;-80
2022/12/13 12:24:49;;;;;;;;;;;;;;;;;;5033350;28;19913;-78
2022/12/13 12:27:35;;;;;;;;;;;;;;;;;;5042241;28;20357;-80
2022/12/13 12:30:22;;;;;;;;;;;;;;;;;;5044542;28;19930;-78
2022/12/13 12:33:08;;;;;;;;;;;;;;;;;;5041450;28;19921;-79
2022/12/13 12:35:55;;;;;;;;;;;;;;;;;;5030941;28;19919;-78
2022/12/13 12:38:43;;;;;;;;;;;;;;;;;;5026149;28;19928;-78
2022/12/13 12:41:29;;;;;;;;;;;;;;;;;;5038865;28;19913;-80
2022/12/13 12:44:16;;;;;;;;;;;;;;;;;;5040918;28;19943;-78
2022/12/13 12:47:03;;;;;;;;;;;;;;;;;;5040080;28;19917;-80
2022/12/13 12:49:50;;;;;;;;;;;;;;;;;;5043368;28;19909;-79
2022/12/13 12:52:36;;;;;;;;;;;;;;;;;;5045204;28;19917;-79
2022/12/13 12:55:22;;;;;;;;;;;;;;;;;;5049579;28;20414;-79
2022/12/13 12:58:09;;;;;;;;;;;;;;;;;;5043318;28;19923;-79
2022/12/13 13:00:55;;;;;;;;;;;;;;;;;;5047568;28;19919;-77
2022/12/13 13:03:42;;;;;;;;;;;;;;;;;;5036017;28;19913;-79
2022/12/13 13:06:28;;;;;;;;;;;;;;;;;;5038523;28;19909;-79
2022/12/13 13:09:15;;;;;;;;;;;;;;;;;;5039224;28;19913;-79
2022/12/13 13:12:02;;;;;;;;;;;;;;;;;;5043541;28;19923;-78
2022/12/13 13:14:48;;;;;;;;;;;;;;;;;;5038025;28;19928;-80
2022/12/13 13:17:34;;;;;;;;;;;;;;;;;;5024730;28;20548;-79
2022/12/13 13:20:22;;;;;;;;;;;;;;;;;;5039034;28;19917;-78
2022/12/13 13:23:08;;;;;;;;;;;;;;;;;;5043888;28;19921;-79
2022/12/13 13:25:55;;;;;;;;;;;;;;;;;;5041051;28;20512;-78
2022/12/13 13:28:41;;;;;;;;;;;;;;;;;;5039400;28;19920;-79
2022/12/13 13:31:28;;;;;;;;;;;;;;;;;;5035989;28;19909;-79
2022/12/13 13:34:14;;;;;;;;;;;;;;;;;;5035360;28;19924;-79
2022/12/13 13:37:01;;;;;;;;;;;;;;;;;;5044060;28;19917;-78
2022/12/13 13:39:48;;;;;;;;;;;;;;;;;;5039519;28;19947;-79
2022/12/13 13:42:34;;;;;;;;;;;;;;;;;;5026486;28;20355;-79
2022/12/13 13:45:21;;;;;;;;;;;;;;;;;;5044841;28;19916;-79
2022/12/13 13:48:07;;;;;;;;;;;;;;;;;;5036301;28;19943;-79
2022/12/13 13:50:54;;;;;;;;;;;;;;;;;;5038256;28;19917;-79
2022/12/13 13:53:40;;;;;;;;;;;;;;;;;;5036252;28;19923;-81
2022/12/13 13:56:27;;;;;;;;;;;;;;;;;;5033032;28;19917;-79
2022/12/13 13:59:13;;;;;;;;;;;;;;;;;;5030096;28;19917;-78
2022/12/13 14:02:00;;;;;;;;;;;;;;;;;;5035813;28;20587;-79
2022/12/13 14:04:46;;;;;;;;;;;;;;;;;;5044406;28;19916;-78
2022/12/13 14:07:33;;;;;;;;;;;;;;;;;;5045481;28;19923;-77
2022/12/13 14:10:19;;;;;;;;;;;;;;;;;;5045340;28;19912;-79
2022/12/13 14:13:06;;;;;;;;;;;;;;;;;;5041497;28;19972;-79
2022/12/13 14:15:52;;;;;;;;;;;;;;;;;;5046331;28;19909;-78
2022/12/13 14:18:39;;;;;;;;;;;;;;;;;;5049618;28;19935;-78
2022/12/13 14:21:25;;;;;;;;;;;;;;;;;;5041943;28;20273;-78
2022/12/13 14:24:12;;;;;;;;;;;;;;;;;;5033105;28;19909;-80
2022/12/13 14:26:58;;;;;;;;;;;;;;;;;;5031690;28;19913;-78
2022/12/13 14:29:45;;;;;;;;;;;;;;;;;;5036313;28;19921;-79
2022/12/13 14:32:31;;;;;;;;;;;;;;;;;;5036940;28;19920;-78
2022/12/13 14:35:18;;;;;;;;;;;;;;;;;;5038833;28;19931;-79
2022/12/13 14:38:05;;;;;;;;;;;;;;;;;;5034431;28;19936;-78
2022/12/13 14:40:51;;;;;;;;;;;;;;;;;;5025395;28;20398;-78
2022/12/13 14:43:38;;;;;;;;;;;;;;;;;;5044798;28;20028;-77
2022/12/13 14:46:25;;;;;;;;;;;;;;;;;;5045142;28;19912;-77
2022/12/13 14:49:12;;;;;;;;;;;;;;;;;;5043698;28;20284;-77
2022/12/13 14:52:02;;;;;;;;;;;;;;;;;;5042797;28;19924;-77
2022/12/13 14:54:49;;;;;;;;;;;;;;;;;;5042574;28;19924;-79
2022/12/13 14:57:35;;;;;;;;;;;;;;;;;;5044899;28;19947;-76
2022/12/13 15:00:22;;;;;;;;;;;;;;;;;;5035820;28;19917;-78
2022/12/13 15:03:08;;;;;;;;;;;;;;;;;;5040722;28;19909;-76
2022/12/13 15:05:55;;;;;;;;;;;;;;;;;;5043349;28;19917;-78
2022/12/13 15:08:41;;;;;;;;;;;;;;;;;;5044416;28;19919;-77
2022/12/13 15:11:28;;;;;;;;;;;;;;;;;;5039377;28;19913;-76
2022/12/13 15:14:14;;;;;;;;;;;;;;;;;;5030142;28;19929;-79
2022/12/13 15:17:01;;;;;;;;;;;;;;;;;;5036429;28;19921;-78
2022/12/13 15:19:48;;;;;;;;;;;;;;;;;;5041870;28;20284;-76
2022/12/13 15:22:34;;;;;;;;;;;;;;;;;;5032512;28;19917;-77
2022/12/13 15:25:21;;;;;;;;;;;;;;;;;;5041446;28;19909;-77
2022/12/13 15:28:07;;;;;;;;;;;;;;;;;;5037098;28;20458;-78
2022/12/13 15:30:53;;;;;;;;;;;;;;;;;;5041748;28;19913;-77
2022/12/13 15:33:40;;;;;;;;;;;;;;;;;;5032205;28;19964;-76
2022/12/13 15:36:26;;;;;;;;;;;;;;;;;;5028533;28;20690;-78
2022/12/13 15:39:13;;;;;;;;;;;;;;;;;;5038568;28;19941;-77
2022/12/13 15:41:59;;;;;;;;;;;;;;;;;;5036631;28;19913;-80
2022/12/13 15:44:46;;;;;;;;;;;;;;;;;;5046172;28;19952;-79
2022/12/13 15:47:33;;;;;;;;;;;;;;;;;;5043844;28;19919;-79
2022/12/13 15:50:19;;;;;;;;;;;;;;;;;;5046827;28;19954;-79
2022/12/13 15:53:06;;;;;;;;;;;;;;;;;;5044786;28;19925;-80
2022/12/13 15:55:52;;;;;;;;;;;;;;;;;;5034711;28;19927;-80
2022/12/13 15:58:38;;;;;;;;;;;;;;;;;;5024027;28;19955;-81
2022/12/13 16:01:25;;;;;;;;;;;;;;;;;;5047678;28;20303;-81
2022/12/13 16:04:11;;;;;;;;;;;;;;;;;;5041731;28;19916;-80
2022/12/13 16:06:58;;;;;;;;;;;;;;;;;;5037672;28;19923;-79
2022/12/13 16:09:45;;;;;;;;;;;;;;;;;;5042660;28;20318;-80
2022/12/13 16:12:31;;;;;;;;;;;;;;;;;;5039780;28;19913;-78
2022/12/13 16:15:18;;;;;;;;;;;;;;;;;;5045140;28;19937;-77
2022/12/13 16:18:05;;;;;;;;;;;;;;;;;;5042576;28;20207;-78
2022/12/13 16:20:51;;;;;;;;;;;;;;;;;;5047530;28;19917;-80
2022/12/13 16:23:38;;;;;;;;;;;;;;;;;;5036384;28;19909;-78
2022/12/13 16:26:25;;;;;;;;;;;;;;;;;;5037358;28;20288;-79
2022/12/13 16:29:11;;;;;;;;;;;;;;;;;;5036453;28;20377;-78
2022/12/13 16:31:58;;;;;;;;;;;;;;;;;;5033811;28;19917;-77
2022/12/13 16:34:44;;;;;;;;;;;;;;;;;;5036374;28;19928;-78
2022/12/13 16:37:30;;;;;;;;;;;;;;;;;;5034594;28;19908;-78
2022/12/13 16:40:17;;;;;;;;;;;;;;;;;;5035202;28;20643;-79
2022/12/13 16:43:06;;;;;;;;;;;;;;;;;;5043290;28;19917;-80
2022/12/13 16:45:53;;;;;;;;;;;;;;;;;;5045046;28;20054;-79
2022/12/13 16:48:39;;;;;;;;;;;;;;;;;;5033370;28;19917;-79
2022/12/13 16:51:26;;;;;;;;;;;;;;;;;;5043060;28;20721;-81
2022/12/13 16:54:15;;;;;;;;;;;;;;;;;;5040608;28;19932;-79
2022/12/13 16:57:02;;;;;;;;;;;;;;;;;;5048140;28;20266;-79
2022/12/13 16:59:51;;;;;;;;;;;;;;;;;;5043997;28;19912;-80
2022/12/13 17:02:43;;;;;;;;;;;;;;;;;;5047753;28;19913;-81
2022/12/13 17:05:30;;;;;;;;;;;;;;;;;;5049455;28;19913;-79
2022/12/13 17:08:16;;;;;;;;;;;;;;;;;;5034667;28;19916;-79
2022/12/13 17:11:03;;;;;;;;;;;;;;;;;;5047954;28;19912;-80
2022/12/13 17:13:49;;;;;;;;;;;;;;;;;;5047313;28;19966;-79
2022/12/13 17:16:36;;;;;;;;;;;;;;;;;;5058244;28;19927;-79
2022/12/13 17:19:22;;;;;;;;;;;;;;;;;;5061178;28;19917;-79
2022/12/13 17:22:09;;;;;;;;;;;;;;;;;;5047641;28;19923;-79
2022/12/13 17:24:55;;;;;;;;;;;;;;;;;;5046456;28;19920;-79
2022/12/13 17:27:42;;;;;;;;;;;;;;;;;;5049878;28;19919;-78
2022/12/13 17:30:33;;;;;;;;;;;;;;;;;;5052271;28;19927;-78
2022/12/13 17:33:19;;;;;;;;;;;;;;;;;;5048647;28;19916;-81
2022/12/13 17:36:06;;;;;;;;;;;;;;;;;;5042603;28;19920;-78
2022/12/13 17:38:52;;;;;;;;;;;;;;;;;;5041646;28;19933;-79
2022/12/13 17:41:39;;;;;;;;;;;;;;;;;;5047162;28;19925;-79
2022/12/13 17:44:25;;;;;;;;;;;;;;;;;;5043684;28;19909;-79
2022/12/13 17:47:12;;;;;;;;;;;;;;;;;;5026287;28;19917;-78
2022/12/13 17:49:59;;;;;;;;;;;;;;;;;;5040703;28;19917;-80
2022/12/13 17:52:45;;;;;;;;;;;;;;;;;;5039517;28;19942;-78
2022/12/13 17:55:32;;;;;;;;;;;;;;;;;;5043688;28;19920;-80
2022/12/13 17:58:18;;;;;;;;;;;;;;;;;;5039044;28;19917;-79
2022/12/13 18:01:04;;;;;;;;;;;;;;;;;;5042345;28;19939;-82
2022/12/13 18:03:51;;;;;;;;;;;;;;;;;;5047108;28;19920;-78
2022/12/13 18:06:37;;;;;;;;;;;;;;;;;;5044312;28;19924;-78
2022/12/13 18:09:24;;;;;;;;;;;;;;;;;;5043862;28;19913;-79
2022/12/13 18:12:11;;;;;;;;;;;;;;;;;;5043564;28;19912;-78
2022/12/13 18:14:58;;;;;;;;;;;;;;;;;;5037572;28;19917;-84
2022/12/13 18:17:44;;;;;;;;;;;;;;;;;;5047250;28;19920;-82
2022/12/13 18:20:30;;;;;;;;;;;;;;;;;;5049270;28;19919;-82
2022/12/13 18:23:18;;;;;;;;;;;;;;;;;;5044864;28;19931;-80
2022/12/13 18:26:05;;;;;;;;;;;;;;;;;;5050482;28;19916;-83
2022/12/13 18:28:51;;;;;;;;;;;;;;;;;;5044666;28;19979;-80
2022/12/13 18:31:38;;;;;;;;;;;;;;;;;;5046187;28;19917;-79
2022/12/13 18:34:24;;;;;;;;;;;;;;;;;;5046516;28;19925;-84
2022/12/13 18:37:11;;;;;;;;;;;;;;;;;;5047489;28;20366;-84
2022/12/13 18:39:57;;;;;;;;;;;;;;;;;;5045055;28;19922;-85
2022/12/13 18:42:44;;;;;;;;;;;;;;;;;;5047377;28;19944;-85
2022/12/13 18:45:31;;;;;;;;;;;;;;;;;;5042627;28;19909;-80
2022/12/13 18:48:17;;;;;;;;;;;;;;;;;;5047280;28;19913;-76
2022/12/13 18:51:04;;;;;;;;;;;;;;;;;;5046362;28;19922;-83
2022/12/13 18:53:50;;;;;;;;;;;;;;;;;;5045193;28;20368;-83
2022/12/13 18:56:37;;;;;;;;;;;;;;;;;;5045351;28;19919;-81
2022/12/13 18:59:23;;;;;;;;;;;;;;;;;;5043086;28;19923;-76
2022/12/13 19:02:11;;;;;;;;;;;;;;;;;;5043051;28;19916;-80
2022/12/13 19:04:57;;;;;;;;;;;;;;;;;;5041755;28;19916;-81
2022/12/13 19:07:44;;;;;;;;;;;;;;;;;;5044894;28;19923;-80